Time;durP1;ratioP1;P1;durP2;ratioP2;P2;SDS_P1;SDS_P2;PMS_P1;PMS_P2;Temp;Humidity;BMP_temperature;BMP_pressure;BME280_temperature;BME280_humidity;BME280_pressure;Samples;Min_cycle;Max_cycle;Signal;HPM_P1;HPM_P2
2021/11/12 00:14:26;;;;;;;14.43;6.20;;;11.30;99.90;;;;;;5052648;28;20047;-76
2021/11/12 00:16:54;;;;;;;13.82;6.75;;;11.30;99.90;;;;;;5051321;28;20124;-76
2021/11/12 00:19:20;;;;;;;8.68;6.03;;;11.30;99.90;;;;;;5051288;28;20025;-76
2021/11/12 00:21:46;;;;;;;12.43;6.32;;;11.30;99.90;;;;;;5052319;28;20032;-75
2021/11/12 00:24:12;;;;;;;13.48;6.57;;;11.20;99.90;;;;;;5063656;28;20021;-76
2021/11/12 00:26:39;;;;;;;10.70;6.28;;;11.10;99.90;;;;;;5072369;28;20165;-76
2021/11/12 00:29:07;;;;;;;11.23;6.35;;;11.00;99.90;;;;;;5070956;28;20024;-75
2021/11/12 00:39:51;;;;;;;12.50;6.63;;;10.70;99.90;;;;;;5070107;28;20028;-75
2021/11/12 00:44:49;;;;;;;10.32;6.65;;;10.70;99.90;;;;;;5072194;28;20078;-75
2021/11/12 00:49:46;;;;;;;14.02;7.30;;;10.70;99.90;;;;;;5071877;28;20078;-75
2021/11/12 00:52:27;;;;;;;12.55;7.20;;;10.70;99.90;;;;;;5071964;28;20021;-76
2021/11/12 00:54:52;;;;;;;10.23;6.68;;;10.70;99.90;;;;;;5072002;28;20036;-75
2021/11/12 00:57:21;;;;;;;9.85;6.90;;;10.70;99.90;;;;;;5072077;28;20025;-75
2021/11/12 00:59:47;;;;;;;11.50;5.95;;;10.70;99.90;;;;;;5072436;28;20143;-76
2021/11/12 01:02:13;;;;;;;10.80;5.63;;;10.80;99.90;;;;;;5072323;28;20530;-76
2021/11/12 01:04:38;;;;;;;7.47;6.03;;;10.80;99.90;;;;;;5072013;28;20032;-75
2021/11/12 01:07:04;;;;;;;12.88;6.82;;;10.80;99.90;;;;;;5072030;28;20123;-76
2021/11/12 01:09:34;;;;;;;12.20;6.13;;;10.80;99.90;;;;;;5072365;28;20024;-75
2021/11/12 01:11:59;;;;;;;10.75;7.07;;;10.90;99.90;;;;;;5071867;28;20054;-75
2021/11/12 01:14:26;;;;;;;9.25;6.03;;;10.90;99.90;;;;;;5071452;28;20476;-76
2021/11/12 01:16:53;;;;;;;7.57;5.82;;;10.80;99.90;;;;;;5071284;28;20024;-76
2021/11/12 01:19:18;;;;;;;11.90;5.78;;;10.80;99.90;;;;;;5070421;28;20390;-76
2021/11/12 01:21:47;;;;;;;9.70;6.07;;;10.70;99.90;;;;;;5072111;28;20032;-76
2021/11/12 01:24:13;;;;;;;11.68;6.03;;;10.50;99.90;;;;;;5042825;28;20037;-76
2021/11/12 01:26:39;;;;;;;7.10;5.80;;;10.50;99.90;;;;;;5051446;28;20031;-76
2021/11/12 01:29:05;;;;;;;13.52;6.78;;;10.50;99.90;;;;;;5051568;28;20111;-76
2021/11/12 01:31:31;;;;;;;12.23;6.28;;;10.50;99.90;;;;;;5071097;28;20024;-76
2021/11/12 01:34:05;;;;;;;8.50;6.45;;;10.60;99.90;;;;;;5071511;28;20025;-76
2021/11/12 01:36:33;;;;;;;12.05;6.75;;;10.60;99.90;;;;;;5070622;28;20094;-76
2021/11/12 01:39:04;;;;;;;10.40;6.28;;;10.70;99.90;;;;;;5070246;28;20090;-75
2021/11/12 01:41:31;;;;;;;10.55;6.22;;;10.60;99.90;;;;;;5071460;28;20058;-76
2021/11/12 01:43:59;;;;;;;14.63;7.13;;;10.70;99.90;;;;;;5071358;28;20021;-75
2021/11/12 01:46:29;;;;;;;8.57;5.65;;;10.70;99.90;;;;;;5071053;28;20021;-76
2021/11/12 01:52:08;;;;;;;13.85;6.75;;;10.70;99.90;;;;;;5071624;28;20070;-76
2021/11/12 01:54:49;;;;;;;16.05;6.97;;;10.70;99.90;;;;;;5056925;28;20017;-76
2021/11/12 01:59:49;;;;;;;13.57;7.20;;;10.70;99.90;;;;;;5051280;28;20602;-75
2021/11/12 02:02:16;;;;;;;11.02;7.25;;;10.70;99.90;;;;;;5051399;28;20060;-76
2021/11/12 02:04:42;;;;;;;12.55;7.35;;;10.50;99.90;;;;;;5051195;28;20107;-76
2021/11/12 02:07:11;;;;;;;12.68;7.32;;;10.50;99.90;;;;;;5051125;28;20021;-76
2021/11/12 02:09:37;;;;;;;11.75;6.82;;;10.60;99.90;;;;;;5050943;28;20120;-76
2021/11/12 02:12:18;;;;;;;10.80;6.68;;;10.60;99.90;;;;;;5049862;28;20059;-76
2021/11/12 02:14:46;;;;;;;13.98;6.88;;;10.60;99.90;;;;;;5054828;28;20025;-76
2021/11/12 02:17:22;;;;;;;10.48;7.22;;;10.60;99.90;;;;;;5054876;28;20037;-76
2021/11/12 02:19:55;;;;;;;9.27;7.18;;;10.60;99.90;;;;;;5054856;28;20027;-76
2021/11/12 02:22:23;;;;;;;9.80;7.00;;;10.60;99.90;;;;;;5055077;28;20021;-76
2021/11/12 02:24:53;;;;;;;13.75;7.07;;;10.60;99.90;;;;;;5054773;28;20013;-76
2021/11/12 02:27:22;;;;;;;10.68;7.07;;;10.50;99.90;;;;;;5053447;28;20021;-76
2021/11/12 02:29:55;;;;;;;11.68;8.10;;;10.50;99.90;;;;;;5054619;28;20629;-76
2021/11/12 02:32:27;;;;;;;14.57;6.68;;;10.50;99.90;;;;;;5054627;28;20029;-75
2021/11/12 02:34:56;;;;;;;12.20;6.75;;;10.50;99.90;;;;;;5054412;28;20017;-75
2021/11/12 02:37:25;;;;;;;15.00;7.22;;;10.50;99.90;;;;;;5054496;28;20041;-76
2021/11/12 02:39:52;;;;;;;10.18;6.53;;;10.50;99.90;;;;;;5054294;28;20060;-76
2021/11/12 02:42:19;;;;;;;11.43;6.78;;;10.40;99.90;;;;;;5053271;28;20021;-76
2021/11/12 02:44:45;;;;;;;9.60;6.10;;;10.40;99.90;;;;;;5054311;28;20028;-76
2021/11/12 02:47:14;;;;;;;11.23;6.40;;;10.30;99.90;;;;;;5054360;28;20047;-76
2021/11/12 02:49:40;;;;;;;12.63;7.78;;;10.20;99.90;;;;;;5054952;28;20027;-75
2021/11/12 02:52:08;;;;;;;16.20;7.70;;;10.10;99.90;;;;;;5055229;28;20375;-75
2021/11/12 02:54:35;;;;;;;13.73;7.63;;;10.00;99.90;;;;;;5054744;28;20048;-76
2021/11/12 02:57:02;;;;;;;13.68;7.50;;;9.80;99.90;;;;;;5054883;28;20025;-76
2021/11/12 02:59:29;;;;;;;15.65;8.57;;;9.70;99.90;;;;;;5054637;28;20013;-76
2021/11/12 03:02:01;;;;;;;10.93;7.70;;;9.70;99.90;;;;;;5055142;28;20045;-75
2021/11/12 03:04:26;;;;;;;17.55;8.15;;;9.70;99.90;;;;;;5054889;28;20028;-76
2021/11/12 03:06:52;;;;;;;13.90;8.27;;;9.60;99.90;;;;;;5053084;28;20016;-76
2021/11/12 03:09:27;;;;;;;13.07;8.60;;;9.70;99.90;;;;;;5054459;28;20018;-75
2021/11/12 03:11:53;;;;;;;13.77;8.45;;;9.60;99.90;;;;;;5054102;28;20108;-75
2021/11/12 03:14:21;;;;;;;12.63;8.20;;;9.50;99.90;;;;;;5054177;28;20033;-75
2021/11/12 03:16:49;;;;;;;18.77;8.82;;;9.50;99.90;;;;;;5054217;28;20071;-75
2021/11/12 03:19:20;;;;;;;16.13;7.88;;;9.40;99.90;;;;;;5054262;28;20055;-76
2021/11/12 03:21:47;;;;;;;11.55;7.35;;;9.50;99.90;;;;;;5052556;28;20422;-76
2021/11/12 03:24:27;;;;;;;10.07;6.43;;;9.50;99.90;;;;;;5053509;28;20055;-75
2021/11/12 04:17:20;;;;;;;14.93;7.05;;;10.40;99.90;;;;;;5072537;28;20028;-76
2021/11/12 04:39:56;;;;;;;11.70;6.90;;;10.40;99.90;;;;;;5072223;28;20039;-75
2021/11/12 05:12:38;;;;;;;7.85;5.80;;;10.50;99.90;;;;;;5071803;28;20024;-75
2021/11/12 05:50:13;;;;;;;12.75;6.57;;;10.60;99.90;;;;;;5075623;28;20037;-76
2021/11/12 05:55:23;;;;;;;11.10;6.70;;;10.40;99.90;;;;;;5062793;28;20588;-75
2021/11/12 05:57:49;;;;;;;12.60;6.95;;;10.30;99.90;;;;;;5063973;28;20021;-75
2021/11/12 06:00:18;;;;;;;9.13;6.65;;;10.20;99.90;;;;;;5055315;28;20025;-75
2021/11/12 06:02:44;;;;;;;16.15;7.88;;;10.20;99.90;;;;;;5068302;28;20417;-75
2021/11/12 06:05:10;;;;;;;16.83;7.47;;;10.20;99.90;;;;;;5054456;28;20386;-76
2021/11/12 06:07:36;;;;;;;14.15;6.95;;;10.20;99.90;;;;;;5069455;28;20322;-75
2021/11/12 06:10:04;;;;;;;10.77;7.40;;;10.20;99.90;;;;;;5074743;28;20039;-75
2021/11/12 06:12:30;;;;;;;12.18;6.95;;;10.20;99.90;;;;;;5073172;28;20030;-75
2021/11/12 06:14:57;;;;;;;12.60;6.68;;;10.20;99.90;;;;;;5073222;28;20486;-75
2021/11/12 06:17:23;;;;;;;15.73;7.30;;;10.20;99.90;;;;;;5073640;28;20032;-76
2021/11/12 06:19:49;;;;;;;10.05;6.78;;;10.20;99.90;;;;;;5072830;28;20032;-75
2021/11/12 06:22:15;;;;;;;10.88;7.00;;;10.30;99.90;;;;;;5073968;28;20024;-75
2021/11/12 06:24:41;;;;;;;13.43;7.85;;;10.30;99.90;;;;;;5073943;28;20016;-75
2021/11/12 06:27:07;;;;;;;11.35;7.43;;;10.30;99.90;;;;;;5074226;28;20013;-76
2021/11/12 06:29:33;;;;;;;15.50;9.35;;;10.30;99.90;;;;;;5074005;28;20091;-75
2021/11/12 06:31:59;;;;;;;11.88;8.40;;;10.30;99.90;;;;;;5074612;28;20027;-76
2021/11/12 06:34:25;;;;;;;20.98;9.35;;;10.40;99.90;;;;;;5073260;28;20025;-76
2021/11/12 06:36:51;;;;;;;17.02;9.50;;;10.40;99.90;;;;;;5074418;28;20053;-75
2021/11/12 06:39:18;;;;;;;13.60;8.60;;;10.40;99.90;;;;;;5074546;28;20497;-76
2021/11/12 06:49:33;;;;;;;21.52;9.55;;;10.30;99.90;;;;;;5074519;28;20405;-75
2021/11/12 06:51:59;;;;;;;16.50;9.27;;;10.40;99.90;;;;;;5074232;28;20275;-76
2021/11/12 06:54:25;;;;;;;17.75;8.32;;;10.40;99.90;;;;;;5074141;28;20032;-75
2021/11/12 06:56:50;;;;;;;15.63;8.77;;;10.40;99.90;;;;;;5073996;28;20059;-75
2021/11/12 06:59:17;;;;;;;13.98;8.25;;;10.40;99.90;;;;;;5073557;28;20060;-76
2021/11/12 07:01:42;;;;;;;16.17;8.93;;;10.40;99.90;;;;;;5072757;28;20055;-75
2021/11/12 07:04:08;;;;;;;12.15;8.45;;;10.40;99.90;;;;;;5074228;28;20494;-75
2021/11/12 07:06:36;;;;;;;12.70;7.60;;;10.40;99.90;;;;;;5074119;28;20172;-75
2021/11/12 07:09:04;;;;;;;14.13;7.88;;;10.40;99.90;;;;;;5074180;28;20025;-75
2021/11/12 07:11:29;;;;;;;13.02;7.47;;;10.40;99.90;;;;;;5073716;28;20498;-75
2021/11/12 07:13:55;;;;;;;14.50;7.50;;;10.50;99.90;;;;;;5074035;28;20103;-75
2021/11/12 07:16:21;;;;;;;10.02;7.18;;;10.50;99.90;;;;;;5074860;28;20034;-76
2021/11/12 07:18:48;;;;;;;11.38;7.10;;;10.60;99.90;;;;;;5075197;28;20143;-75
2021/11/12 07:21:14;;;;;;;10.32;7.45;;;10.70;99.90;;;;;;5074623;28;20405;-75
2021/11/12 07:23:40;;;;;;;14.38;7.10;;;10.80;99.90;;;;;;5073278;28;20032;-75
2021/11/12 07:26:06;;;;;;;10.52;7.28;;;10.80;99.90;;;;;;5074643;28;20082;-75
2021/11/12 07:28:33;;;;;;;12.70;7.57;;;10.80;99.90;;;;;;5074188;28;20021;-76
2021/11/12 07:31:01;;;;;;;17.70;7.85;;;10.80;99.90;;;;;;5073262;28;20024;-76
2021/11/12 07:33:27;;;;;;;13.40;7.63;;;10.80;99.90;;;;;;5074611;28;20052;-75
2021/11/12 07:35:58;;;;;;;11.57;8.07;;;10.90;99.90;;;;;;5074456;28;20505;-75
2021/11/12 07:39:00;;;;;;;12.90;7.88;;;10.90;99.90;;;;;;5074543;28;20028;-75
2021/11/12 07:49:03;;;;;;;15.10;9.05;;;11.00;99.90;;;;;;5074181;28;20025;-75
2021/11/12 07:51:29;;;;;;;17.15;8.38;;;11.00;99.90;;;;;;5074303;28;20021;-75
2021/11/12 07:53:55;;;;;;;16.90;8.68;;;11.10;99.90;;;;;;5074051;28;20059;-75
2021/11/12 07:56:23;;;;;;;14.57;9.05;;;11.10;99.90;;;;;;5072756;28;20036;-75
2021/11/12 07:58:48;;;;;;;13.95;8.95;;;11.10;99.90;;;;;;5071258;28;20029;-75
2021/11/12 08:01:15;;;;;;;15.70;9.43;;;11.20;99.90;;;;;;5068248;28;20028;-75
2021/11/12 08:03:42;;;;;;;15.88;9.63;;;11.20;99.90;;;;;;5067100;28;20013;-75
2021/11/12 08:06:11;;;;;;;14.80;9.65;;;11.20;99.90;;;;;;5069117;28;20031;-75
2021/11/12 08:08:38;;;;;;;15.57;9.82;;;11.20;99.90;;;;;;5067343;28;20017;-75
2021/11/12 08:11:16;;;;;;;17.75;9.63;;;11.20;99.90;;;;;;5069139;28;20429;-75
2021/11/12 08:19:04;;;;;;;19.15;10.05;;;11.40;99.90;;;;;;5069435;28;20481;-75
2021/11/12 08:24:53;;;;;;;25.75;11.63;;;11.40;99.90;;;;;;5068824;28;20035;-80
2021/11/12 08:27:33;;;;;;;18.83;10.05;;;11.50;99.90;;;;;;5067701;28;20036;-80
2021/11/12 08:38:21;;;;;;;33.97;13.50;;;11.60;99.90;;;;;;5068398;28;20132;-80
2021/11/12 08:43:24;;;;;;;24.15;12.63;;;11.70;99.90;;;;;;5068398;28;20033;-80
2021/11/12 08:48:20;;;;;;;19.55;10.65;;;11.70;99.90;;;;;;5066568;28;20074;-80
2021/11/12 08:50:46;;;;;;;18.20;9.93;;;11.80;99.90;;;;;;5066144;28;20098;-80
2021/11/12 08:53:14;;;;;;;20.98;10.25;;;11.80;99.90;;;;;;5062958;28;20033;-80
2021/11/12 08:55:41;;;;;;;16.55;8.80;;;11.90;99.90;;;;;;5046435;28;20033;-80
2021/11/12 08:58:11;;;;;;;18.60;8.40;;;11.90;99.90;;;;;;5046425;28;20059;-80
2021/11/12 09:00:39;;;;;;;16.92;9.60;;;11.90;99.90;;;;;;5046022;28;20463;-79
2021/11/12 09:03:06;;;;;;;19.52;9.45;;;12.00;99.90;;;;;;5051341;28;20390;-78
2021/11/12 09:05:32;;;;;;;23.25;10.48;;;12.10;99.90;;;;;;5072123;28;20090;-79
2021/11/12 09:07:58;;;;;;;25.20;12.93;;;12.10;99.90;;;;;;5070599;28;20021;-79
2021/11/12 09:10:27;;;;;;;23.17;12.77;;;12.20;99.90;;;;;;5072019;28;20047;-78
2021/11/12 09:12:59;;;;;;;30.30;14.32;;;12.20;99.90;;;;;;5067348;28;20085;-78
2021/11/12 09:15:31;;;;;;;27.20;14.40;;;12.20;99.90;;;;;;5066530;28;20024;-78
2021/11/12 09:18:01;;;;;;;29.17;14.38;;;12.30;99.90;;;;;;5069670;28;20121;-77
2021/11/12 09:20:27;;;;;;;25.73;14.45;;;12.30;99.90;;;;;;5068802;28;20033;-78
2021/11/12 09:22:55;;;;;;;23.67;13.25;;;12.30;99.90;;;;;;5067929;28;20444;-79
2021/11/12 09:25:22;;;;;;;24.08;13.77;;;12.30;99.90;;;;;;5048831;28;20721;-78
2021/11/12 09:27:48;;;;;;;26.73;13.70;;;12.40;99.90;;;;;;5052962;28;20510;-81
2021/11/12 09:30:22;;;;;;;25.30;12.30;;;12.40;99.90;;;;;;5067995;28;20028;-79
2021/11/12 09:32:52;;;;;;;26.30;11.23;;;12.50;99.90;;;;;;5065888;28;20070;-81
2021/11/12 09:35:18;;;;;;;23.67;11.07;;;12.50;99.90;;;;;;5067853;28;20016;-80
2021/11/12 09:37:44;;;;;;;18.60;10.50;;;12.50;99.90;;;;;;5067622;28;20168;-79
2021/11/12 09:40:14;;;;;;;16.67;9.15;;;12.50;99.90;;;;;;5067639;28;20493;-81
2021/11/12 09:42:41;;;;;;;20.85;9.48;;;12.50;99.90;;;;;;5068091;28;20387;-80
2021/11/12 09:45:10;;;;;;;19.83;9.55;;;12.60;99.90;;;;;;5064658;28;20022;-83
2021/11/12 09:47:37;;;;;;;16.02;8.77;;;12.60;99.90;;;;;;5066587;28;20056;-81
2021/11/12 09:50:10;;;;;;;16.65;9.15;;;12.70;99.90;;;;;;5067709;28;20059;-82
2021/11/12 09:52:36;;;;;;;15.73;8.73;;;12.80;99.90;;;;;;5068235;28;20112;-82
2021/11/12 09:55:03;;;;;;;15.15;9.27;;;12.80;99.90;;;;;;5067847;28;20028;-80
2021/11/12 09:57:30;;;;;;;17.10;10.40;;;12.80;99.90;;;;;;5066455;28;20496;-80
2021/11/12 09:59:59;;;;;;;26.15;10.95;;;12.90;99.90;;;;;;5067188;28;20395;-82
2021/11/12 10:02:29;;;;;;;20.60;10.30;;;13.00;99.90;;;;;;5067162;28;20112;-80
2021/11/12 10:04:55;;;;;;;18.88;9.82;;;13.00;99.90;;;;;;5066835;28;20032;-82
2021/11/12 10:07:22;;;;;;;20.30;10.00;;;13.00;99.90;;;;;;5067537;28;20024;-81
2021/11/12 10:10:02;;;;;;;24.95;11.38;;;13.00;99.90;;;;;;5066297;28;20017;-82
2021/11/12 10:12:43;;;;;;;22.42;11.77;;;13.10;99.90;;;;;;5065565;28;20033;-79
2021/11/12 10:15:17;;;;;;;26.10;11.75;;;13.10;99.90;;;;;;5063355;28;20103;-80
2021/11/12 10:17:44;;;;;;;23.08;13.82;;;13.10;99.90;;;;;;5067842;28;20052;-79
2021/11/12 10:20:13;;;;;;;37.83;20.67;;;13.10;99.90;;;;;;5067465;28;20485;-79
2021/11/12 10:22:43;;;;;;;30.85;17.08;;;13.10;99.90;;;;;;5071409;28;20074;-78
2021/11/12 10:25:09;;;;;;;30.63;16.60;;;13.20;99.90;;;;;;5053023;28;20025;-78
2021/11/12 10:27:36;;;;;;;31.55;16.65;;;13.10;99.90;;;;;;5051937;28;20511;-78
2021/11/12 10:30:14;;;;;;;33.63;15.05;;;13.10;99.90;;;;;;5065537;28;20472;-79
2021/11/12 10:32:41;;;;;;;33.78;16.15;;;13.10;99.90;;;;;;5069606;28;20023;-78
2021/11/12 10:35:18;;;;;;;35.60;15.20;;;13.20;99.90;;;;;;5070605;28;20029;-78
2021/11/12 10:37:44;;;;;;;37.75;16.67;;;13.20;99.90;;;;;;5068522;28;20028;-78
2021/11/12 10:40:12;;;;;;;37.47;15.82;;;13.30;99.90;;;;;;5069993;28;20027;-79
2021/11/12 10:42:44;;;;;;;29.23;15.88;;;13.30;99.90;;;;;;5072161;28;20070;-80
2021/11/12 10:45:16;;;;;;;37.13;15.07;;;13.30;99.90;;;;;;5072003;28;20458;-80
2021/11/12 10:47:49;;;;;;;37.30;15.90;;;13.40;99.90;;;;;;5071686;28;20051;-76
2021/11/12 10:50:17;;;;;;;40.35;15.77;;;13.40;99.90;;;;;;5066244;28;20036;-75
2021/11/12 10:52:43;;;;;;;36.58;16.00;;;13.40;99.90;;;;;;5063702;28;20040;-74
2021/11/12 10:55:16;;;;;;;30.35;15.25;;;13.40;99.90;;;;;;5068646;28;20112;-75
2021/11/12 10:57:55;;;;;;;33.67;15.48;;;13.40;99.90;;;;;;5074328;28;20029;-75
2021/11/12 11:00:41;;;;;;;43.25;15.43;;;13.40;99.90;;;;;;5073831;28;20028;-75
2021/11/12 11:03:20;;;;;;;30.20;14.75;;;13.40;99.90;;;;;;5073165;28;20017;-74
2021/11/12 11:05:59;;;;;;;32.75;15.88;;;13.40;99.90;;;;;;5074188;28;20027;-76
2021/11/12 11:08:27;;;;;;;31.50;15.45;;;13.50;99.90;;;;;;5072899;28;20056;-75
2021/11/12 11:10:55;;;;;;;30.30;16.35;;;13.50;99.90;;;;;;5071909;28;20086;-74
2021/11/12 11:13:26;;;;;;;29.58;14.82;;;13.60;99.90;;;;;;5072728;28;20024;-75
2021/11/12 11:16:01;;;;;;;32.57;15.67;;;13.60;99.90;;;;;;5069937;28;20023;-75
2021/11/12 11:18:43;;;;;;;29.48;14.38;;;13.60;99.90;;;;;;5073927;28;20067;-75
2021/11/12 11:21:24;;;;;;;26.25;13.88;;;13.70;99.90;;;;;;5074199;28;20461;-75
2021/11/12 11:24:04;;;;;;;34.78;14.95;;;13.70;99.90;;;;;;5070286;28;20048;-75
2021/11/12 11:26:46;;;;;;;29.60;13.55;;;13.70;99.90;;;;;;5073897;28;20021;-75
2021/11/12 11:29:21;;;;;;;35.58;15.77;;;13.80;99.90;;;;;;5074287;28;20025;-75
2021/11/12 11:31:54;;;;;;;35.80;16.40;;;13.80;99.90;;;;;;5072847;28;20035;-75
2021/11/12 11:34:22;;;;;;;39.70;17.10;;;13.80;99.90;;;;;;5072821;28;20029;-75
2021/11/12 11:36:50;;;;;;;32.25;15.15;;;13.80;99.90;;;;;;5071874;28;20147;-75
2021/11/12 11:39:18;;;;;;;39.05;15.82;;;13.90;99.90;;;;;;5073638;28;20103;-75
2021/11/12 11:41:48;;;;;;;30.98;14.90;;;13.90;99.90;;;;;;5073146;28;20029;-75
2021/11/12 11:44:16;;;;;;;30.20;14.30;;;13.90;99.90;;;;;;5073138;28;20024;-75
2021/11/12 11:46:45;;;;;;;26.77;14.63;;;13.90;99.90;;;;;;5072825;28;20021;-75
2021/11/12 11:49:14;;;;;;;37.67;16.10;;;14.00;99.90;;;;;;5071845;28;20428;-75
2021/11/12 11:52:00;;;;;;;33.28;14.93;;;14.00;99.90;;;;;;5071906;28;20440;-75
2021/11/12 11:54:28;;;;;;;39.08;15.13;;;14.10;99.90;;;;;;5073149;28;20127;-75
2021/11/12 11:57:00;;;;;;;34.40;13.73;;;14.10;99.90;;;;;;5073919;28;20048;-75
2021/11/12 11:59:35;;;;;;;32.92;14.07;;;14.20;99.90;;;;;;5073739;28;20103;-75
2021/11/12 12:02:09;;;;;;;31.80;15.18;;;14.20;99.90;;;;;;5073334;28;20016;-75
2021/11/12 12:04:40;;;;;;;29.77;13.82;;;14.30;99.90;;;;;;5073833;28;20065;-75
2021/11/12 12:07:15;;;;;;;31.23;14.60;;;14.30;99.90;;;;;;5073258;28;20035;-75
2021/11/12 12:10:01;;;;;;;32.58;13.88;;;14.30;99.90;;;;;;5071466;28;20027;-75
2021/11/12 12:12:33;;;;;;;27.05;13.63;;;14.40;99.90;;;;;;5071507;28;20078;-75
2021/11/12 12:15:05;;;;;;;28.92;14.55;;;14.40;99.90;;;;;;5072529;28;20024;-75
2021/11/12 12:17:41;;;;;;;30.08;14.18;;;14.50;99.90;;;;;;5072892;28;20406;-75
2021/11/12 12:20:18;;;;;;;28.92;14.30;;;14.50;99.90;;;;;;5072336;28;20025;-74
2021/11/12 13:25:33;;;;;;;23.15;12.15;;;14.80;99.90;;;;;;5048232;28;20029;-74
2021/11/12 13:28:12;;;;;;;19.55;11.18;;;14.90;99.90;;;;;;5051500;28;20021;-74
2021/11/12 13:30:40;;;;;;;25.67;12.68;;;14.90;99.90;;;;;;5050444;28;20055;-74
2021/11/12 13:33:22;;;;;;;20.88;11.55;;;14.90;99.90;;;;;;5051467;28;20094;-74
2021/11/12 13:35:48;;;;;;;;;;;15.00;99.90;;;;;;5050442;28;20124;-74
2021/11/12 13:38:14;;;;;;;29.50;14.63;;;15.00;99.90;;;;;;5051543;28;20000;-74
2021/11/12 13:40:40;;;;;;;34.70;16.75;;;15.10;99.90;;;;;;5053438;28;20029;-74
2021/11/12 13:43:05;;;;;;;41.85;18.27;;;15.20;99.90;;;;;;5071175;28;20024;-74
2021/11/12 13:45:31;;;;;;;39.30;16.85;;;15.10;99.90;;;;;;5071316;28;20059;-74
2021/11/12 13:48:12;;;;;;;31.98;15.45;;;15.10;99.90;;;;;;5071388;28;20081;-74
2021/11/12 13:50:50;;;;;;;28.65;14.85;;;15.10;99.90;;;;;;5070141;28;20082;-73
2021/11/12 13:53:17;;;;;;;31.60;14.80;;;15.10;99.90;;;;;;5071190;28;20020;-73
2021/11/12 13:55:44;;;;;;;28.67;14.35;;;15.10;99.90;;;;;;5071136;28;20116;-74
2021/11/12 13:58:10;;;;;;;27.33;14.38;;;15.20;99.90;;;;;;5069936;28;20166;-74
2021/11/12 14:00:37;;;;;;;33.22;15.48;;;15.10;99.90;;;;;;5071229;28;20108;-73
2021/11/12 14:03:08;;;;;;;29.00;14.90;;;15.10;99.90;;;;;;5071166;28;20028;-73
2021/11/12 14:05:36;;;;;;;33.20;16.02;;;15.10;99.90;;;;;;5071116;28;20020;-73
2021/11/12 14:08:12;;;;;;;37.08;16.42;;;14.90;99.90;;;;;;5071139;28;20095;-73
2021/11/12 14:10:47;;;;;;;29.88;15.35;;;14.90;99.90;;;;;;5075128;28;20482;-74
2021/11/12 14:13:18;;;;;;;33.28;14.77;;;14.80;99.90;;;;;;5075144;28;20025;-74
2021/11/12 14:16:04;;;;;;;34.50;16.07;;;14.80;99.90;;;;;;5075116;28;20024;-74
2021/11/12 14:18:55;;;;;;;34.92;16.48;;;14.80;99.90;;;;;;5075157;28;20061;-73
2021/11/12 14:21:34;;;;;;;31.17;15.75;;;14.70;99.90;;;;;;5074790;28;20027;-73
2021/11/12 14:29:19;;;;;;;44.17;18.90;;;14.70;99.90;;;;;;5074623;28;20548;-74
2021/11/12 14:40:04;;;;;;;35.60;18.20;;;14.70;99.90;;;;;;5073063;28;20040;-74
2021/11/12 14:42:54;;;;;;;33.55;17.10;;;14.70;99.90;;;;;;5074398;28;20012;-73
2021/11/12 14:45:27;;;;;;;36.35;17.55;;;14.60;99.90;;;;;;5074334;28;20012;-74
2021/11/12 14:48:14;;;;;;;34.22;17.55;;;14.60;99.90;;;;;;5074310;28;20029;-74
2021/11/12 14:50:50;;;;;;;31.92;16.92;;;14.50;99.90;;;;;;5073010;28;20029;-74
2021/11/12 14:56:01;;;;;;;34.10;17.00;;;14.40;99.90;;;;;;5074296;28;20033;-74
2021/11/12 14:58:27;;;;;;;31.25;17.73;;;14.40;99.90;;;;;;5074099;28;20025;-74
2021/11/12 15:01:06;;;;;;;39.17;17.17;;;14.30;99.90;;;;;;5072744;28;20043;-74
2021/11/12 15:03:32;;;;;;;33.92;17.10;;;14.30;99.90;;;;;;5074006;28;20241;-74
2021/11/12 15:05:58;;;;;;;32.30;17.17;;;14.20;99.90;;;;;;5073861;28;20550;-74
2021/11/12 15:08:26;;;;;;;34.00;16.13;;;14.20;99.90;;;;;;5073584;28;20021;-74
2021/11/12 15:10:52;;;;;;;33.42;15.80;;;14.20;99.90;;;;;;5073323;28;20021;-74
2021/11/12 15:13:19;;;;;;;36.95;16.08;;;14.20;99.90;;;;;;5072095;28;20390;-74
2021/11/12 15:15:46;;;;;;;37.17;16.13;;;14.10;99.90;;;;;;5072990;28;20145;-74
2021/11/12 15:18:12;;;;;;;32.70;16.38;;;14.00;99.90;;;;;;5073311;28;20071;-74
2021/11/12 15:20:39;;;;;;;30.13;15.00;;;14.00;99.90;;;;;;5073474;28;20016;-74
2021/11/12 15:26:00;;;;;;;27.23;15.90;;;13.90;99.90;;;;;;5054068;28;20421;-73
2021/11/12 15:32:08;;;;;;;41.60;18.60;;;13.80;99.90;;;;;;5052675;28;20386;-74
2021/11/12 15:34:13;;;;;;;36.25;18.20;;;13.70;99.90;;;;;;5056253;28;20544;-73
2021/11/12 15:37:02;;;;;;;38.47;18.58;;;13.70;99.90;;;;;;5086422;28;20514;-74
2021/11/12 15:39:37;;;;;;;36.53;17.50;;;13.60;99.90;;;;;;5054296;28;20021;-74
2021/11/12 15:45:09;;;;;;;34.67;16.20;;;13.40;99.90;;;;;;5072073;28;20162;-75
2021/11/12 15:47:42;;;;;;;32.00;18.02;;;13.30;99.90;;;;;;5073695;28;20021;-75
2021/11/12 15:50:14;;;;;;;32.38;18.17;;;13.30;99.90;;;;;;5073755;28;20020;-75
2021/11/12 15:55:28;;;;;;;33.00;16.75;;;13.20;99.90;;;;;;5073623;28;20032;-74
2021/11/12 16:00:31;;;;;;;37.25;18.60;;;13.10;99.90;;;;;;5073567;28;20040;-75
2021/11/12 16:08:07;;;;;;;42.72;18.77;;;12.80;99.90;;;;;;5070278;28;20057;-75
2021/11/12 16:26:27;;;;;;;39.88;17.73;;;12.20;99.90;;;;;;5055200;28;20520;-75
2021/11/12 16:31:19;;;;;;;43.65;19.90;;;12.30;99.90;;;;;;5051663;28;20395;-75
2021/11/12 16:33:44;;;;;;;36.88;18.73;;;12.30;99.90;;;;;;5052541;28;20035;-75
2021/11/12 16:36:11;;;;;;;42.75;20.38;;;12.30;99.90;;;;;;5052080;28;20041;-75
2021/11/12 16:38:37;;;;;;;39.83;19.23;;;12.30;99.90;;;;;;5052381;28;20029;-75
2021/11/12 16:46:28;;;;;;;41.25;20.33;;;12.10;99.90;;;;;;5051847;28;20440;-75
2021/11/12 16:54:12;;;;;;;44.95;21.35;;;12.20;99.90;;;;;;5061531;28;20461;-75
2021/11/12 17:09:49;;;;;;;40.60;19.33;;;12.10;99.90;;;;;;5051336;28;20029;-75
2021/11/12 17:15:41;;;;;;;42.47;21.17;;;12.00;99.90;;;;;;5064242;28;20044;-75
2021/11/12 17:48:21;;;;;;;41.40;18.75;;;11.90;99.90;;;;;;5075108;28;20025;-80
2021/11/12 17:51:09;;;;;;;40.60;19.67;;;11.90;99.90;;;;;;5078544;28;20524;-80
2021/11/12 18:02:01;;;;;;;39.90;20.20;;;11.70;99.90;;;;;;5073588;28;20585;-80
2021/11/12 21:46:57;;;;;;;40.70;18.38;;;10.90;99.90;;;;;;4958781;28;20031;-81
2021/11/12 21:49:23;;;;;;;39.72;19.95;;;10.90;99.90;;;;;;4987691;28;20022;-81
2021/11/12 21:51:49;;;;;;;41.67;18.65;;;10.90;99.90;;;;;;4991135;28;20026;-80
2021/11/12 21:54:15;;;;;;;37.63;18.83;;;10.90;99.90;;;;;;4976472;28;20034;-81
2021/11/12 21:56:41;;;;;;;34.75;17.20;;;10.90;99.90;;;;;;4989474;28;20029;-82
2021/11/12 21:59:07;;;;;;;44.72;18.63;;;10.90;99.90;;;;;;4984791;28;20036;-83
2021/11/12 22:01:35;;;;;;;37.80;17.88;;;10.90;99.90;;;;;;4990271;28;20029;-83
2021/11/12 22:04:02;;;;;;;35.72;18.33;;;10.90;99.90;;;;;;4990856;28;20022;-83
2021/11/12 22:06:28;;;;;;;40.97;19.00;;;10.90;99.90;;;;;;4989475;28;20048;-82
2021/11/12 22:08:53;;;;;;;38.13;18.92;;;10.80;99.90;;;;;;4990192;28;20396;-81
2021/11/12 22:11:19;;;;;;;36.65;17.95;;;10.80;99.90;;;;;;4989955;28;20030;-82
2021/11/12 22:13:46;;;;;;;38.03;17.80;;;10.80;99.90;;;;;;4974194;28;20030;-82
2021/11/12 22:16:15;;;;;;;36.60;16.40;;;10.90;99.90;;;;;;4991358;28;20424;-80
2021/11/12 22:18:43;;;;;;;37.00;17.63;;;10.80;99.90;;;;;;4992223;28;20030;-79
2021/11/12 22:21:09;;;;;;;39.50;17.40;;;10.80;99.90;;;;;;4990014;28;20522;-74
2021/11/12 22:23:35;;;;;;;33.42;16.85;;;10.80;99.90;;;;;;4981438;28;20104;-73
2021/11/12 22:26:01;;;;;;;40.65;17.80;;;10.80;99.90;;;;;;4984841;28;20758;-73
2021/11/12 22:28:27;;;;;;;35.45;16.55;;;10.80;99.90;;;;;;4987607;28;20030;-73
2021/11/12 22:30:54;;;;;;;34.45;16.75;;;10.70;99.90;;;;;;4972291;28;20026;-74
2021/11/12 22:33:20;;;;;;;34.92;15.57;;;10.70;99.90;;;;;;4991792;28;20109;-79
2021/11/12 22:35:49;;;;;;;34.00;16.15;;;10.70;99.90;;;;;;4993425;28;20547;-74
2021/11/12 22:38:15;;;;;;;37.17;16.48;;;10.70;99.90;;;;;;4974184;28;20037;-74
2021/11/12 22:40:46;;;;;;;33.38;16.70;;;10.70;99.90;;;;;;4992659;28;20034;-74
2021/11/12 22:43:12;;;;;;;32.38;14.80;;;10.70;99.90;;;;;;4989519;28;20019;-74
2021/11/12 22:45:38;;;;;;;36.58;17.40;;;10.70;99.90;;;;;;4989798;28;20018;-74
2021/11/12 22:48:04;;;;;;;33.00;16.77;;;10.60;99.90;;;;;;4990834;28;20495;-74
2021/11/12 22:50:30;;;;;;;38.67;17.50;;;10.50;99.90;;;;;;4994730;28;20069;-78
2021/11/12 22:52:56;;;;;;;34.33;17.40;;;10.50;99.90;;;;;;4996282;28;20050;-82
2021/11/12 22:55:22;;;;;;;36.22;17.20;;;10.50;99.90;;;;;;4996381;28;20026;-81
2021/11/12 22:57:49;;;;;;;42.65;17.60;;;10.50;99.90;;;;;;4996218;28;20385;-81